Terminal Aerodrome Forecast
Issued by NWS Knoxville/Tri Cities, TN

Current Version | Previous Version | Text Only | Print | Product List | Glossary On
Versions: 1 2 3 4 5 6 7 8 9 10 11 12 13 14 15 16 17 18 19 20 21 22 23 24 25 26 27 28 29 30 31 32 33 34 35 36 37 38 39 40 41 42 43 44 45 46 47 48
201
FTUS44 KMRX 301120
TAFTRI
TAF
KTRI 301120Z 3012/3112 00000KT 4SM BR SCT001 OVC015
      TEMPO 3012/3014 1SM BR OVC002
     FM301400 26005KT P6SM SCT025 BKN035
     FM301800 25008KT P6SM VCTS SCT040CB BKN250
     FM310000 26003KT P6SM BKN250=

USA.gov is the U.S. government's official web portal to all federal, state and local government web resources and services.